createdAt,value
2024-01-12T00:01:53.208Z,99688.69
2024-01-12T00:04:20.077Z,99692.09
2024-01-12T00:06:47.698Z,99693.34
2024-01-12T00:09:14.699Z,99695.66
2024-01-12T00:11:41.614Z,99702.66
2024-01-12T00:14:09.098Z,99707.66
2024-01-12T00:16:35.924Z,99713.75
2024-01-12T00:19:02.852Z,99723.13
2024-01-12T00:21:29.714Z,99727.31
2024-01-12T00:23:56.695Z,99727.31
2024-01-12T00:26:23.582Z,99725.75
2024-01-12T00:28:50.396Z,99729.13
2024-01-12T00:31:17.357Z,99722.88
2024-01-12T00:33:44.247Z,99732.38
2024-01-12T00:36:12.234Z,99734.16
2024-01-12T00:38:39.034Z,99734.16
2024-01-12T00:41:05.909Z,99748.94
2024-01-12T00:43:32.708Z,99744.25
2024-01-12T00:45:59.853Z,99731.19
2024-01-12T00:48:26.984Z,99741.63
2024-01-12T00:50:54.227Z,99735.31
2024-01-12T00:53:21.262Z,99730.94
2024-01-12T00:55:48.166Z,99733.47
2024-01-12T00:58:14.923Z,99733.53
2024-01-12T01:00:41.778Z,99733.63
2024-01-12T01:03:08.749Z,99743.75
2024-01-12T01:05:35.684Z,99742.38
2024-01-12T01:08:02.520Z,99744.00
2024-01-12T01:10:29.301Z,99741.84
2024-01-12T01:12:56.158Z,99740.78
2024-01-12T01:15:23.181Z,99744.97
2024-01-12T01:17:50.798Z,99751.03
2024-01-12T01:20:17.899Z,99738.97
2024-01-12T01:22:44.816Z,99753.50
2024-01-12T01:25:11.923Z,99747.47
2024-01-12T01:27:38.735Z,99753.53
2024-01-12T01:30:06.155Z,99753.50
2024-01-12T01:32:33.816Z,99745.13
2024-01-12T01:35:00.885Z,99751.31
2024-01-12T01:37:27.672Z,99748.44
2024-01-12T01:39:54.526Z,99746.91
2024-01-12T01:42:21.392Z,99756.34
2024-01-12T01:44:48.221Z,99765.06
2024-01-12T01:47:16.099Z,99763.13
2024-01-12T01:49:43.013Z,99758.63
2024-01-12T01:52:10.901Z,99755.75
2024-01-12T01:54:38.058Z,99766.00
2024-01-12T01:57:06.567Z,99762.63
2024-01-12T01:59:36.447Z,99755.66
2024-01-12T02:02:05.196Z,99762.00
2024-01-12T02:04:32.389Z,99759.38
2024-01-12T02:06:59.401Z,99764.38
2024-01-12T02:09:28.622Z,99770.56
2024-01-12T02:11:56.019Z,99767.22
2024-01-12T02:14:23.274Z,99766.19
2024-01-12T02:16:50.394Z,99767.22
2024-01-12T02:19:17.417Z,99763.66
2024-01-12T02:21:44.425Z,99755.13
2024-01-12T02:24:11.237Z,99763.59
2024-01-12T02:26:38.192Z,99756.66
2024-01-12T02:29:05.105Z,99758.84
2024-01-12T02:31:32.153Z,99756.19
2024-01-12T02:33:59.002Z,99765.72
2024-01-12T02:36:28.955Z,99763.78
2024-01-12T02:38:56.624Z,99769.69
2024-01-12T02:41:23.712Z,99770.97
2024-01-12T02:43:50.612Z,99763.50
2024-01-12T02:46:17.762Z,99770.78
2024-01-12T02:48:44.611Z,99775.47
2024-01-12T02:51:11.452Z,99776.88
2024-01-12T02:53:38.373Z,99777.63
2024-01-12T02:56:05.310Z,99773.47
2024-01-12T02:58:32.124Z,99771.16
2024-01-12T03:01:00.258Z,99769.63
2024-01-12T03:03:27.165Z,99771.84
2024-01-12T03:05:54.139Z,99775.94
2024-01-12T03:08:20.913Z,99772.03
2024-01-12T03:10:47.744Z,99779.84
2024-01-12T03:13:14.509Z,99769.72
2024-01-12T03:15:41.339Z,99778.19
2024-01-12T03:18:08.296Z,99770.31
2024-01-12T03:20:36.329Z,99768.91
2024-01-12T03:23:03.381Z,99764.41
2024-01-12T03:25:30.242Z,99767.69
2024-01-12T03:27:59.594Z,99764.13
2024-01-12T03:30:26.483Z,99761.38
2024-01-12T03:32:53.560Z,99754.16
2024-01-12T03:35:20.410Z,99754.44
2024-01-12T03:37:47.239Z,99749.78
2024-01-12T03:40:14.198Z,99748.72
2024-01-12T03:42:41.018Z,99743.63
2024-01-12T03:45:08.965Z,99744.88
2024-01-12T03:47:36.486Z,99742.66
2024-01-12T03:50:03.579Z,99739.31
2024-01-12T03:52:30.388Z,99748.38
2024-01-12T03:54:57.200Z,99742.22
2024-01-12T03:57:24.701Z,99737.41
2024-01-12T03:59:51.563Z,99736.19
2024-01-12T04:02:19.230Z,99739.41
2024-01-12T04:04:46.092Z,99739.31
2024-01-12T04:07:13.027Z,99740.06
2024-01-12T04:09:42.573Z,99748.47
2024-01-12T04:12:10.134Z,99756.03
2024-01-12T04:14:37.362Z,99756.81
2024-01-12T04:17:05.775Z,99756.66
2024-01-12T04:19:32.753Z,99756.84
2024-01-12T04:21:59.828Z,99755.94
2024-01-12T04:24:26.656Z,99756.72
2024-01-12T04:26:53.733Z,99761.09
2024-01-12T04:29:20.627Z,99765.16
2024-01-12T04:31:47.443Z,99761.81
2024-01-12T04:34:14.334Z,99757.94
2024-01-12T04:36:41.246Z,99759.94
2024-01-12T04:39:08.038Z,99751.44
2024-01-12T04:41:34.881Z,99750.50
2024-01-12T04:44:01.745Z,99758.34
2024-01-12T04:46:29.780Z,99758.88
2024-01-12T04:48:56.772Z,99754.63
2024-01-12T04:51:23.660Z,99757.50
2024-01-12T04:53:50.581Z,99756.22
2024-01-12T04:56:17.679Z,99757.84
2024-01-12T04:58:44.606Z,99758.72
2024-01-12T05:01:11.451Z,99758.84
2024-01-12T05:03:38.335Z,99757.47
2024-01-12T05:06:05.546Z,99753.88
2024-01-12T05:08:35.093Z,99751.38
2024-01-12T05:11:01.933Z,99751.28
2024-01-12T05:13:28.782Z,99748.75
2024-01-12T05:15:55.729Z,99752.84
2024-01-12T05:18:23.427Z,99759.94
2024-01-12T05:20:50.363Z,99766.19
2024-01-12T05:23:17.541Z,99774.00
2024-01-12T05:25:44.450Z,99772.69
2024-01-12T05:28:11.503Z,99773.09
2024-01-12T05:30:39.421Z,99772.19
2024-01-12T05:33:06.374Z,99770.50
2024-01-12T05:35:33.445Z,99782.13
2024-01-12T05:38:00.326Z,99784.97
2024-01-12T05:40:27.100Z,99781.44
2024-01-12T05:42:53.937Z,99777.53
2024-01-12T05:45:20.749Z,99777.09
2024-01-12T05:47:47.629Z,99775.19
2024-01-12T05:50:14.726Z,99778.59
2024-01-12T05:52:41.598Z,99772.13
2024-01-12T05:55:08.638Z,99767.44
2024-01-12T05:57:36.327Z,99770.59
2024-01-12T06:00:05.489Z,99777.63
2024-01-12T06:02:32.814Z,99777.88
2024-01-12T06:04:59.601Z,99771.47
2024-01-12T06:07:26.516Z,99768.66
2024-01-12T06:09:54.801Z,99767.66
2024-01-12T06:12:21.587Z,99754.56
2024-01-12T06:14:48.362Z,99757.84
2024-01-12T06:17:15.295Z,99758.56
2024-01-12T06:19:42.252Z,99757.22
2024-01-12T06:22:10.969Z,99768.78
2024-01-12T06:24:37.786Z,99767.63
2024-01-12T06:27:05.551Z,99765.25
2024-01-12T06:29:32.861Z,99763.66
2024-01-12T06:31:59.924Z,99765.34
2024-01-12T06:34:26.686Z,99762.97
2024-01-12T06:36:53.504Z,99768.19
2024-01-12T06:39:20.772Z,99768.69
2024-01-12T06:41:48.274Z,99759.66
2024-01-12T06:44:15.858Z,99760.78
2024-01-12T06:46:45.017Z,99765.91
2024-01-12T06:49:13.075Z,99772.78
2024-01-12T06:51:40.150Z,99767.88
2024-01-12T06:54:07.164Z,99765.44
2024-01-12T06:56:38.432Z,99764.84
2024-01-12T06:59:05.978Z,99768.19
2024-01-12T07:01:33.413Z,99767.16
2024-01-12T07:04:00.407Z,99768.13
2024-01-12T07:06:27.449Z,99770.50
2024-01-12T07:08:54.495Z,99772.38
2024-01-12T07:11:21.471Z,99767.88
2024-01-12T07:13:48.246Z,99781.03
2024-01-12T07:16:15.287Z,99781.94
2024-01-12T07:18:43.865Z,99789.09
2024-01-12T07:21:10.848Z,99800.22
2024-01-12T07:23:37.735Z,99784.03
2024-01-12T07:26:04.690Z,99788.50
2024-01-12T07:28:31.956Z,99786.03
2024-01-12T07:30:58.876Z,99784.25
2024-01-12T07:33:26.116Z,99791.16
2024-01-12T07:35:53.189Z,99803.13
2024-01-12T07:38:20.510Z,99801.19
2024-01-12T07:40:48.302Z,99805.72
2024-01-12T07:43:15.505Z,99803.16
2024-01-12T07:45:42.428Z,99808.56
2024-01-12T07:48:09.581Z,99810.63
2024-01-12T07:50:37.106Z,99814.94
2024-01-12T07:53:04.064Z,99811.66
2024-01-12T07:55:31.249Z,99825.03
2024-01-12T07:57:58.172Z,99832.09
2024-01-12T08:00:25.026Z,99826.50
2024-01-12T08:02:53.730Z,99828.38
2024-01-12T08:05:21.735Z,99833.91
2024-01-12T08:07:49.429Z,99829.84
2024-01-12T08:10:17.097Z,99826.06
2024-01-12T08:12:43.942Z,99833.38
2024-01-12T08:15:11.017Z,99833.19
2024-01-12T08:17:38.921Z,99837.97
2024-01-12T08:20:06.841Z,99835.47
2024-01-12T08:22:33.828Z,99845.88
2024-01-12T08:25:01.206Z,99838.97
2024-01-12T08:27:28.125Z,99838.06
2024-01-12T08:29:55.009Z,99842.53
2024-01-12T08:32:21.999Z,99846.06
2024-01-12T08:34:49.382Z,99859.47
2024-01-12T08:37:16.222Z,99856.84
2024-01-12T08:39:43.040Z,99855.06
2024-01-12T08:42:09.876Z,99862.44
2024-01-12T08:44:36.776Z,99862.97
2024-01-12T08:47:03.710Z,99865.59
2024-01-12T08:49:30.526Z,99868.22
2024-01-12T08:51:57.421Z,99865.31
2024-01-12T08:54:24.200Z,99861.97
2024-01-12T08:56:51.536Z,99858.13
2024-01-12T08:59:18.517Z,99857.88
2024-01-12T09:01:45.478Z,99856.09
2024-01-12T09:04:12.517Z,99873.81
2024-01-12T09:06:39.480Z,99874.88
2024-01-12T09:09:06.505Z,99870.84
2024-01-12T09:11:33.374Z,99871.16
2024-01-12T09:14:00.287Z,99874.72
2024-01-12T09:16:27.131Z,99869.13
2024-01-12T09:18:54.084Z,99857.19
2024-01-12T09:21:21.030Z,99860.84
2024-01-12T09:23:47.973Z,99865.88
2024-01-12T09:26:14.781Z,99868.59
2024-01-12T09:28:41.599Z,99868.00
2024-01-12T09:31:09.415Z,99869.06
2024-01-12T09:33:36.565Z,99860.94
2024-01-12T09:36:04.525Z,99859.97
2024-01-12T09:38:31.542Z,99865.47
2024-01-12T09:40:59.903Z,99863.31
2024-01-12T09:43:29.436Z,99864.22
2024-01-12T09:46:00.270Z,99868.34
2024-01-12T09:48:28.534Z,99868.34
2024-01-12T09:50:58.831Z,99872.13
2024-01-12T09:53:26.921Z,99866.00
2024-01-12T09:56:03.381Z,99870.00
2024-01-12T09:58:37.973Z,99867.94
2024-01-12T10:01:06.546Z,99867.31
2024-01-12T10:03:34.699Z,99862.34
2024-01-12T10:06:01.798Z,99865.94
2024-01-12T10:08:38.794Z,99861.69
2024-01-12T10:11:05.650Z,99854.03
2024-01-12T10:13:33.010Z,99852.97
2024-01-12T10:16:02.248Z,99868.44
2024-01-12T10:18:29.587Z,99873.44
2024-01-12T10:20:56.949Z,99866.84
2024-01-12T10:23:24.667Z,99863.19
2024-01-12T10:26:01.264Z,99869.09
2024-01-12T10:28:32.266Z,99868.66
2024-01-12T10:31:04.304Z,99868.50
2024-01-12T10:33:31.460Z,99866.09
2024-01-12T10:36:07.766Z,99870.63
2024-01-12T10:38:38.137Z,99864.66
2024-01-12T10:41:07.560Z,99872.16
2024-01-12T10:43:38.369Z,99867.66
2024-01-12T10:46:13.412Z,99867.69
2024-01-12T10:49:06.654Z,99866.53
2024-01-12T10:51:38.106Z,99867.47
2024-01-12T10:54:20.086Z,99869.28
2024-01-12T10:56:47.090Z,99863.97
2024-01-12T10:59:14.320Z,99870.94
2024-01-12T11:01:42.108Z,99865.22
2024-01-12T11:04:09.297Z,99873.66
2024-01-12T11:06:37.504Z,99860.53
2024-01-12T11:09:06.063Z,99854.84
2024-01-12T11:11:41.471Z,99860.94
2024-01-12T11:14:08.973Z,99854.66
2024-01-12T11:16:36.457Z,99841.34
2024-01-12T11:19:04.671Z,99849.53
2024-01-12T11:21:31.714Z,99846.50
2024-01-12T11:23:58.660Z,99852.56
2024-01-12T11:26:25.586Z,99853.06
2024-01-12T11:28:52.435Z,99846.25
2024-01-12T11:31:27.302Z,99856.66
2024-01-12T11:34:04.375Z,99862.88
2024-01-12T11:36:31.849Z,99844.72
2024-01-12T11:39:02.175Z,99837.78
2024-01-12T11:41:31.154Z,99846.38
2024-01-12T11:43:58.284Z,99838.78
2024-01-12T11:46:25.330Z,99826.78
2024-01-12T11:48:52.872Z,99834.06
2024-01-12T11:51:24.313Z,99835.41
2024-01-12T11:53:53.301Z,99832.59
2024-01-12T11:56:25.203Z,99825.78
2024-01-12T11:58:55.436Z,99826.28
2024-01-12T12:01:24.022Z,99822.19
2024-01-12T12:03:50.941Z,99817.03
2024-01-12T12:06:18.431Z,99819.53
2024-01-12T12:08:45.472Z,99815.97
2024-01-12T12:11:15.115Z,99807.59
2024-01-12T12:13:42.616Z,99795.38
2024-01-12T12:16:09.601Z,99792.75
2024-01-12T12:18:36.792Z,99796.22
2024-01-12T12:21:04.211Z,99784.13
2024-01-12T12:23:31.488Z,99779.94
2024-01-12T12:26:00.629Z,99777.53
2024-01-12T12:28:27.837Z,99780.44
2024-01-12T12:30:55.250Z,99783.41
2024-01-12T12:33:26.101Z,99781.25
2024-01-12T12:36:10.308Z,99771.44
2024-01-12T12:38:38.773Z,99766.84
2024-01-12T12:41:09.944Z,99756.69
2024-01-12T12:43:39.176Z,99751.16
2024-01-12T12:46:06.442Z,99747.69
2024-01-12T12:48:33.485Z,99750.19
2024-01-12T12:51:00.699Z,99746.09
2024-01-12T12:53:27.998Z,99742.66
2024-01-12T12:55:55.418Z,99742.19
2024-01-12T12:58:22.259Z,99744.06
2024-01-12T13:00:49.462Z,99736.25
2024-01-12T13:03:16.408Z,99732.34
2024-01-12T13:05:43.455Z,99726.31
2024-01-12T13:08:10.586Z,99733.63
2024-01-12T13:10:37.834Z,99727.88
2024-01-12T13:13:05.481Z,99725.59
2024-01-12T13:15:33.394Z,99725.00
2024-01-12T13:18:00.509Z,99719.53
2024-01-12T13:20:30.404Z,99720.25
2024-01-12T13:22:58.240Z,99728.16
2024-01-12T13:25:25.302Z,99741.16
2024-01-12T13:27:52.134Z,99727.81
2024-01-12T13:30:19.329Z,99718.47
2024-01-12T13:32:46.340Z,99714.59
2024-01-12T13:35:13.425Z,99728.41
2024-01-12T13:37:40.342Z,99726.84
2024-01-12T13:40:07.887Z,99721.00
2024-01-12T13:42:35.053Z,99719.75
2024-01-12T13:45:02.907Z,99717.59
2024-01-12T13:47:30.154Z,99717.34
2024-01-12T13:49:57.135Z,99711.41
2024-01-12T13:52:24.143Z,99704.84
2024-01-12T13:54:51.096Z,99709.16
2024-01-12T13:57:18.169Z,99715.34
2024-01-12T13:59:45.212Z,99710.09
2024-01-12T14:02:12.101Z,99724.22
2024-01-12T14:04:39.072Z,99720.59
2024-01-12T14:07:07.165Z,99732.38
2024-01-12T14:09:34.128Z,99733.41
2024-01-12T14:12:01.852Z,99729.28
2024-01-12T14:14:28.846Z,99720.22
2024-01-12T14:16:55.988Z,99720.31
2024-01-12T14:19:22.935Z,99724.09
2024-01-12T14:21:49.860Z,99720.69
2024-01-12T14:24:17.977Z,99726.66
2024-01-12T14:26:44.964Z,99727.84
2024-01-12T14:29:12.336Z,99721.25
2024-01-12T14:31:39.463Z,99716.84
2024-01-12T14:34:06.653Z,99721.09
2024-01-12T14:36:33.636Z,99715.19
2024-01-12T14:39:00.523Z,99719.69
2024-01-12T14:41:27.448Z,99719.84
2024-01-12T14:43:54.303Z,99715.13
2024-01-12T14:46:22.163Z,99717.38
2024-01-12T14:48:49.959Z,99722.56
2024-01-12T14:51:17.330Z,99719.84
2024-01-12T14:53:44.381Z,99721.13
2024-01-12T14:56:14.647Z,99712.47
2024-01-12T14:58:42.773Z,99707.31
2024-01-12T15:01:09.831Z,99716.59
2024-01-12T15:03:37.090Z,99714.16
2024-01-12T15:06:04.697Z,99721.31
2024-01-12T15:08:33.580Z,99718.09
2024-01-12T15:11:00.590Z,99718.25
2024-01-12T15:13:28.376Z,99716.75
2024-01-12T15:15:56.866Z,99714.63
2024-01-12T15:18:24.376Z,99718.66
2024-01-12T15:20:55.057Z,99718.66
2024-01-12T15:23:22.328Z,99713.16
2024-01-12T15:25:54.739Z,99715.25
2024-01-12T15:28:21.617Z,99716.31
2024-01-12T15:30:48.547Z,99711.91
2024-01-12T15:33:15.728Z,99711.72
2024-01-12T15:35:44.005Z,99716.25
2024-01-12T15:38:10.812Z,99705.81
2024-01-12T15:40:37.600Z,99703.66
2024-01-12T15:43:04.793Z,99711.69
2024-01-12T15:45:31.949Z,99704.03
2024-01-12T15:47:59.079Z,99710.28
2024-01-12T15:50:27.116Z,99710.34
2024-01-12T15:52:54.025Z,99710.00
2024-01-12T15:55:20.770Z,99711.19
2024-01-12T15:57:47.693Z,99707.38
2024-01-12T16:00:14.817Z,99710.16
2024-01-12T16:02:41.725Z,99712.91
2024-01-12T16:05:08.994Z,99719.59
2024-01-12T16:07:35.835Z,99717.06
2024-01-12T16:10:02.921Z,99716.19
2024-01-12T16:12:30.039Z,99708.16
2024-01-12T16:14:56.898Z,99705.53
2024-01-12T16:17:23.869Z,99716.28
2024-01-12T16:19:51.038Z,99716.28
2024-01-12T16:22:18.025Z,99720.53
2024-01-12T16:24:49.526Z,99724.06
2024-01-12T16:27:17.118Z,99729.34
2024-01-12T16:29:45.325Z,99720.63
2024-01-12T16:32:12.472Z,99714.47
2024-01-12T16:34:39.614Z,99720.63
2024-01-12T16:37:06.531Z,99733.75
2024-01-12T16:39:33.423Z,99731.28
2024-01-12T16:42:00.468Z,99728.75
2024-01-12T16:44:28.874Z,99744.53
2024-01-12T16:46:55.902Z,99744.81
2024-01-12T16:49:23.179Z,99742.38
2024-01-12T16:51:50.244Z,99733.75
2024-01-12T16:54:17.470Z,99742.44
2024-01-12T16:56:44.365Z,99751.38
2024-01-12T16:59:12.085Z,99746.00
2024-01-12T17:01:39.805Z,99754.53
2024-01-12T17:04:06.781Z,99757.09
2024-01-12T17:06:41.217Z,99748.47
2024-01-12T17:09:12.136Z,99753.97
2024-01-12T17:11:46.693Z,99758.38
2024-01-12T17:14:13.941Z,99762.78
2024-01-12T17:16:44.723Z,99760.94
2024-01-12T17:19:12.005Z,99750.78
2024-01-12T17:21:39.036Z,99759.94
2024-01-12T17:24:06.167Z,99755.31
2024-01-12T17:26:36.368Z,99751.78
2024-01-12T17:29:03.312Z,99744.13
2024-01-12T17:31:31.349Z,99758.81
2024-01-12T17:33:58.740Z,99758.28
2024-01-12T17:36:25.602Z,99749.53
2024-01-12T17:38:52.644Z,99756.22
2024-01-12T17:41:23.776Z,99748.69
2024-01-12T17:43:51.546Z,99756.78
2024-01-12T17:46:18.407Z,99757.97
2024-01-12T17:48:45.554Z,99751.16
2024-01-12T17:51:16.200Z,99750.06
2024-01-12T17:53:44.247Z,99756.22
2024-01-12T17:56:12.351Z,99758.22
2024-01-12T17:58:39.274Z,99756.28
2024-01-12T18:01:06.115Z,99752.81
2024-01-12T18:03:32.908Z,99752.09
2024-01-12T18:06:03.168Z,99750.19
2024-01-12T18:08:30.105Z,99758.59
2024-01-12T18:10:56.923Z,99766.91
2024-01-12T18:13:23.797Z,99763.81
2024-01-12T18:15:50.732Z,99767.41
2024-01-12T18:18:17.963Z,99768.09
2024-01-12T18:20:45.032Z,99779.34
2024-01-12T18:23:11.885Z,99782.50
2024-01-12T18:25:38.739Z,99783.25
2024-01-12T18:28:05.615Z,99783.66
2024-01-12T18:30:32.659Z,99777.34
2024-01-12T18:33:02.688Z,99768.69
2024-01-12T18:35:29.633Z,99773.22
2024-01-12T18:37:56.553Z,99781.63
2024-01-12T18:40:23.479Z,99774.75
2024-01-12T18:42:50.460Z,99781.41
2024-01-12T18:45:17.415Z,99788.88
2024-01-12T18:47:44.323Z,99777.13
2024-01-12T18:50:11.344Z,99788.28
2024-01-12T18:52:43.838Z,99784.84
2024-01-12T18:55:10.814Z,99769.81
2024-01-12T18:57:37.624Z,99765.81
2024-01-12T19:00:06.481Z,99774.66
2024-01-12T19:02:33.368Z,99784.22
2024-01-12T19:05:00.262Z,99776.84
2024-01-12T19:07:28.810Z,99779.75
2024-01-12T19:09:58.163Z,99771.09
2024-01-12T19:12:24.991Z,99774.38
2024-01-12T19:14:51.924Z,99769.19
2024-01-12T19:17:18.945Z,99768.03
2024-01-12T19:19:45.974Z,99757.19
2024-01-12T19:22:12.991Z,99764.16
2024-01-12T19:24:44.780Z,99744.28
2024-01-12T19:27:12.617Z,99744.16
2024-01-12T19:29:39.610Z,99750.06
2024-01-12T19:32:06.954Z,99747.41
2024-01-12T19:34:33.950Z,99744.47
2024-01-12T19:37:00.783Z,99750.59
2024-01-12T19:39:27.612Z,99757.72
2024-01-12T19:41:58.530Z,99745.69
2024-01-12T19:44:25.524Z,99749.31
2024-01-12T19:46:52.357Z,99769.63
2024-01-12T19:49:19.239Z,99753.41
2024-01-12T19:51:46.129Z,99756.88
2024-01-12T19:54:13.101Z,99750.59
2024-01-12T19:56:39.952Z,99750.75
2024-01-12T19:59:07.041Z,99751.75
2024-01-12T20:01:33.971Z,99750.34
2024-01-12T20:04:01.575Z,99742.06
2024-01-12T20:06:28.695Z,99751.75
2024-01-12T20:08:55.683Z,99751.00
2024-01-12T20:11:22.495Z,99739.31
2024-01-12T20:13:49.278Z,99734.53
2024-01-12T20:16:16.155Z,99730.53
2024-01-12T20:18:43.660Z,99727.03
2024-01-12T20:21:11.594Z,99725.94
2024-01-12T20:23:39.250Z,99722.81
2024-01-12T20:26:06.441Z,99716.69
2024-01-12T20:28:34.732Z,99719.47
2024-01-12T20:31:02.594Z,99710.06
2024-01-12T20:33:29.871Z,99715.78
2024-01-12T20:35:56.982Z,99716.19
2024-01-12T20:38:23.839Z,99709.78
2024-01-12T20:40:50.667Z,99707.09
2024-01-12T20:43:17.491Z,99701.84
2024-01-12T20:45:44.728Z,99701.75
2024-01-12T20:48:11.638Z,99698.88
2024-01-12T20:50:38.593Z,99707.91
2024-01-12T20:53:05.652Z,99703.94
2024-01-12T20:55:32.468Z,99706.38
2024-01-12T20:57:59.659Z,99703.81
2024-01-12T21:00:26.661Z,99713.75
2024-01-12T21:02:53.595Z,99711.84
2024-01-12T21:05:20.601Z,99710.13
2024-01-12T21:07:47.576Z,99712.94
2024-01-12T21:10:14.501Z,99714.69
2024-01-12T21:12:41.286Z,99714.81
2024-01-12T21:15:08.489Z,99713.06
2024-01-12T21:17:35.330Z,99698.25
2024-01-12T21:20:02.416Z,99696.56
2024-01-12T21:22:33.974Z,99702.59
2024-01-12T21:25:07.592Z,99702.91
2024-01-12T21:27:34.570Z,99699.19
2024-01-12T21:30:01.567Z,99692.84
2024-01-12T21:32:29.528Z,99693.06
2024-01-12T21:34:56.583Z,99686.31
2024-01-12T21:37:23.477Z,99682.88
2024-01-12T21:39:50.338Z,99677.50
2024-01-12T21:42:19.502Z,99674.81
2024-01-12T21:44:46.575Z,99676.69
2024-01-12T21:47:15.265Z,99679.91
2024-01-12T21:49:42.516Z,99687.72
2024-01-12T21:52:09.509Z,99686.03
2024-01-12T21:54:36.290Z,99670.47
2024-01-12T21:57:03.532Z,99675.88
2024-01-12T21:59:30.968Z,99681.00
2024-01-12T22:01:58.092Z,99676.66
2024-01-12T22:04:24.859Z,99679.13
2024-01-12T22:06:51.781Z,99684.41
2024-01-12T22:09:18.877Z,99677.38
2024-01-12T22:11:45.773Z,99676.69
2024-01-12T22:14:12.694Z,99682.88
2024-01-12T22:16:39.619Z,99677.50
2024-01-12T22:19:06.591Z,99670.41
2024-01-12T22:21:36.473Z,99676.41
2024-01-12T22:24:06.666Z,99673.19
2024-01-12T22:26:33.544Z,99672.56
2024-01-12T22:29:02.854Z,99675.81
2024-01-12T22:31:29.657Z,99675.03
2024-01-12T22:33:56.630Z,99668.03
2024-01-12T22:36:23.552Z,99663.75
2024-01-12T22:38:50.424Z,99667.16
2024-01-12T22:41:17.333Z,99658.34
2024-01-12T22:43:44.208Z,99660.13
2024-01-12T22:46:10.978Z,99654.91
2024-01-12T22:48:37.798Z,99654.19
2024-01-12T22:51:05.890Z,99653.09
2024-01-12T22:53:33.487Z,99648.03
2024-01-12T22:56:00.341Z,99652.38
2024-01-12T22:58:27.153Z,99649.91
2024-01-12T23:00:54.047Z,99651.47
2024-01-12T23:03:20.962Z,99638.13
2024-01-12T23:05:47.881Z,99643.38
2024-01-12T23:08:14.769Z,99631.09
2024-01-12T23:10:41.618Z,99632.13
2024-01-12T23:13:08.406Z,99633.00
2024-01-12T23:15:35.250Z,99628.63
2024-01-12T23:18:02.584Z,99625.22
2024-01-12T23:20:30.301Z,99625.97
2024-01-12T23:22:57.720Z,99619.97
2024-01-12T23:25:24.731Z,99627.84
2024-01-12T23:27:51.516Z,99626.03
2024-01-12T23:30:18.414Z,99626.81
2024-01-12T23:32:45.608Z,99621.63
2024-01-12T23:35:12.819Z,99617.34
2024-01-12T23:37:39.768Z,99609.50
2024-01-12T23:40:10.405Z,99612.03
2024-01-12T23:42:37.710Z,99605.00
2024-01-12T23:45:05.178Z,99601.47
2024-01-12T23:47:32.648Z,99592.94
2024-01-12T23:49:59.807Z,99602.97
2024-01-12T23:52:26.707Z,99582.91
2024-01-12T23:54:53.476Z,99594.41
2024-01-12T23:57:20.346Z,99587.41
2024-01-12T23:59:47.334Z,99584.81
